Main page
METAR-TAF:

METAR-TAF

Airports :

Bamako–Modibo Keïta International Airport

Bamako, Mali

latitude: 12-32N, longitude: 007-57W, elevation: 380 m

Current weather observation

The report was made 37 minutes ago, at 04:30 UTC
Wind 2 kt from variable directions
Temperature 22°C
Humidity 100%
Pressure 1016 hPa
Visibility 10 km or more
Few clouds at a height of 1600 ft

METAR: GABS 200430Z VRB02KT 9999 FEW016 22/22 Q1016 RETS NOSIG

Time: 05:07 (05:07 UTC)

Forecast

The report was made 6 hours and 7 minutes ago, at 23:00 UTC
Forecast valid from 20 at 00 UTC to 21 at 06 UTC
Wind 6 kt from the South/Southwest
Visibility 10 km or more
Scattered clouds at a height of 2000 ft
Probability 40% :
Temporary
from 20 at 15 UTC to 20 at 20 UTC
Wind 15 kt from variable directions
Visibility: 4500 m
Scattered clouds at a height of 2000 ft
Few clouds at a height of 2600 ft, Cumulonimbus.
thunderstorm, rain showers

TAF: GABS 192300Z 2000/2106 20006KT 9999 SCT020 PROB40 TEMPO 2015/2020 VRB15KT 4500 TS SHRA SCT020 FEW026CB

Weather observations and forecasts of more than 4000 airports (METAR and TAF reports).

The available stations are represented by yellow and red dots on the map.

Hover mouse over dot to see the name of the station.

Then click to see weather observations and forecasts.

To change the map : click on the green buttons with a black cross to zoom in, on the green button with a dash to zoom out, or on the green arrows for adjacent maps.


METAR-TAF: